sensor_id;sensor_type;location;lat;lon;timestamp;pressure;altitude;pressure_sealevel;temperature;humidity
64521;BME280;50896;46.714;17.322;2023-03-25T00:02:25;99744.09;;;13.61;72.73
64521;BME280;50896;46.714;17.322;2023-03-25T00:04:56;99744.06;;;13.54;72.39
64521;BME280;50896;46.714;17.322;2023-03-25T00:07:22;99737.06;;;13.53;72.81
64521;BME280;50896;46.714;17.322;2023-03-25T00:09:49;99762.00;;;13.67;72.58
64521;BME280;50896;46.714;17.322;2023-03-25T00:12:16;99742.84;;;13.57;72.11
64521;BME280;50896;46.714;17.322;2023-03-25T00:14:45;99765.06;;;13.64;72.73
64521;BME280;50896;46.714;17.322;2023-03-25T00:17:21;99766.91;;;13.63;73.18
64521;BME280;50896;46.714;17.322;2023-03-25T00:19:49;99767.34;;;13.67;73.32
64521;BME280;50896;46.714;17.322;2023-03-25T00:22:18;99767.38;;;13.74;72.86
64521;BME280;50896;46.714;17.322;2023-03-25T00:24:47;99761.19;;;13.66;73.21
64521;BME280;50896;46.714;17.322;2023-03-25T00:27:14;99755.19;;;13.58;73.91
64521;BME280;50896;46.714;17.322;2023-03-25T00:29:45;99774.28;;;13.61;74.49
64521;BME280;50896;46.714;17.322;2023-03-25T00:32:13;99773.69;;;13.59;74.90
64521;BME280;50896;46.714;17.322;2023-03-25T00:34:41;99764.56;;;13.47;75.17
64521;BME280;50896;46.714;17.322;2023-03-25T00:37:14;99771.56;;;13.55;75.55
64521;BME280;50896;46.714;17.322;2023-03-25T00:39:43;99773.84;;;13.51;76.11
64521;BME280;50896;46.714;17.322;2023-03-25T00:42:10;99767.66;;;13.50;75.22
64521;BME280;50896;46.714;17.322;2023-03-25T00:44:39;99765.59;;;13.46;76.17
64521;BME280;50896;46.714;17.322;2023-03-25T00:47:06;99765.34;;;13.41;76.45
64521;BME280;50896;46.714;17.322;2023-03-25T00:49:33;99763.72;;;13.46;76.45
64521;BME280;50896;46.714;17.322;2023-03-25T00:52:00;99759.22;;;13.47;76.41
64521;BME280;50896;46.714;17.322;2023-03-25T00:54:27;99768.91;;;13.48;75.91
64521;BME280;50896;46.714;17.322;2023-03-25T00:56:54;99768.91;;;13.48;76.27
64521;BME280;50896;46.714;17.322;2023-03-25T00:59:21;99776.06;;;13.47;77.06
64521;BME280;50896;46.714;17.322;2023-03-25T01:01:48;99769.66;;;13.42;77.77
64521;BME280;50896;46.714;17.322;2023-03-25T01:04:19;99786.94;;;13.46;78.08
64521;BME280;50896;46.714;17.322;2023-03-25T01:06:46;99786.28;;;13.37;81.40
64521;BME280;50896;46.714;17.322;2023-03-25T01:09:19;99811.56;;;13.41;86.89
64521;BME280;50896;46.714;17.322;2023-03-25T01:11:47;99814.00;;;13.36;96.98
64521;BME280;50896;46.714;17.322;2023-03-25T01:14:17;99825.31;;;13.16;100.00
64521;BME280;50896;46.714;17.322;2023-03-25T01:16:45;99843.06;;;13.03;100.00
64521;BME280;50896;46.714;17.322;2023-03-25T01:19:13;99833.69;;;12.85;100.00
64521;BME280;50896;46.714;17.322;2023-03-25T01:21:40;99852.84;;;12.74;100.00
64521;BME280;50896;46.714;17.322;2023-03-25T01:24:11;99850.56;;;12.71;100.00
64521;BME280;50896;46.714;17.322;2023-03-25T01:26:38;99851.25;;;12.58;100.00
64521;BME280;50896;46.714;17.322;2023-03-25T01:29:06;99856.25;;;12.46;100.00
64521;BME280;50896;46.714;17.322;2023-03-25T01:31:33;99861.78;;;12.44;100.00
64521;BME280;50896;46.714;17.322;2023-03-25T01:34:00;99870.97;;;12.42;100.00
64521;BME280;50896;46.714;17.322;2023-03-25T01:36:28;99860.69;;;12.39;100.00
64521;BME280;50896;46.714;17.322;2023-03-25T01:38:59;99860.69;;;12.39;100.00
64521;BME280;50896;46.714;17.322;2023-03-25T01:41:28;99872.72;;;12.35;100.00
64521;BME280;50896;46.714;17.322;2023-03-25T01:46:49;99870.81;;;12.28;100.00
64521;BME280;50896;46.714;17.322;2023-03-25T01:49:23;99873.41;;;12.22;100.00
64521;BME280;50896;46.714;17.322;2023-03-25T01:51:59;99869.44;;;12.33;100.00
64521;BME280;50896;46.714;17.322;2023-03-25T01:54:28;99853.44;;;12.33;100.00
64521;BME280;50896;46.714;17.322;2023-03-25T01:56:55;99844.81;;;12.30;100.00
64521;BME280;50896;46.714;17.322;2023-03-25T01:59:24;99861.53;;;12.39;100.00
64521;BME280;50896;46.714;17.322;2023-03-25T02:01:54;99860.69;;;12.39;100.00
64521;BME280;50896;46.714;17.322;2023-03-25T02:04:37;99864.19;;;12.39;100.00
64521;BME280;50896;46.714;17.322;2023-03-25T02:07:06;99872.38;;;12.38;100.00
64521;BME280;50896;46.714;17.322;2023-03-25T02:09:35;99873.38;;;12.37;100.00
64521;BME280;50896;46.714;17.322;2023-03-25T02:12:05;99861.72;;;12.38;100.00
64521;BME280;50896;46.714;17.322;2023-03-25T02:14:34;99858.88;;;12.24;100.00
64521;BME280;50896;46.714;17.322;2023-03-25T02:28:57;99865.59;;;12.20;100.00
64521;BME280;50896;46.714;17.322;2023-03-25T02:31:45;99870.94;;;12.20;100.00
64521;BME280;50896;46.714;17.322;2023-03-25T02:34:32;99869.94;;;12.21;100.00
64521;BME280;50896;46.714;17.322;2023-03-25T02:40:05;99851.28;;;12.21;100.00
64521;BME280;50896;46.714;17.322;2023-03-25T02:42:39;99840.72;;;12.13;100.00
64521;BME280;50896;46.714;17.322;2023-03-25T02:45:17;99851.28;;;12.21;100.00
64521;BME280;50896;46.714;17.322;2023-03-25T02:47:51;99843.47;;;12.20;100.00
64521;BME280;50896;46.714;17.322;2023-03-25T02:50:33;99849.16;;;12.17;100.00
64521;BME280;50896;46.714;17.322;2023-03-25T02:53:04;99841.28;;;12.08;100.00
64521;BME280;50896;46.714;17.322;2023-03-25T02:55:36;99860.84;;;12.16;100.00
64521;BME280;50896;46.714;17.322;2023-03-25T02:58:10;99858.91;;;12.09;100.00
64521;BME280;50896;46.714;17.322;2023-03-25T03:00:39;99866.25;;;12.07;100.00
64521;BME280;50896;46.714;17.322;2023-03-25T03:03:07;99867.09;;;12.08;100.00
64521;BME280;50896;46.714;17.322;2023-03-25T03:05:37;99873.59;;;12.05;100.00
64521;BME280;50896;46.714;17.322;2023-03-25T03:24:35;99888.50;;;12.00;100.00
64521;BME280;50896;46.714;17.322;2023-03-25T03:29:44;99879.56;;;11.92;100.00
64521;BME280;50896;46.714;17.322;2023-03-25T03:32:16;99875.81;;;12.02;100.00
64521;BME280;50896;46.714;17.322;2023-03-25T03:34:58;99862.75;;;11.92;100.00
64521;BME280;50896;46.714;17.322;2023-03-25T03:37:32;99852.38;;;11.82;100.00
64521;BME280;50896;46.714;17.322;2023-03-25T03:40:07;99845.97;;;11.76;100.00
64521;BME280;50896;46.714;17.322;2023-03-25T03:42:49;99874.16;;;11.71;100.00
64521;BME280;50896;46.714;17.322;2023-03-25T03:45:22;99865.22;;;11.63;100.00
64521;BME280;50896;46.714;17.322;2023-03-25T03:47:53;99864.50;;;11.70;100.00
64521;BME280;50896;46.714;17.322;2023-03-25T03:50:27;99856.41;;;11.63;100.00
64521;BME280;50896;46.714;17.322;2023-03-25T03:55:44;99863.84;;;11.68;100.00
64521;BME280;50896;46.714;17.322;2023-03-25T03:58:40;99846.03;;;11.53;100.00
64521;BME280;50896;46.714;17.322;2023-03-25T04:04:05;99817.66;;;11.45;100.00
64521;BME280;50896;46.714;17.322;2023-03-25T04:06:40;99813.09;;;11.54;100.00
64521;BME280;50896;46.714;17.322;2023-03-25T04:09:22;99796.06;;;11.55;100.00
64521;BME280;50896;46.714;17.322;2023-03-25T04:12:03;99784.34;;;11.50;100.00
64521;BME280;50896;46.714;17.322;2023-03-25T04:14:31;99801.16;;;11.50;100.00
64521;BME280;50896;46.714;17.322;2023-03-25T04:16:58;99794.53;;;11.61;100.00
64521;BME280;50896;46.714;17.322;2023-03-25T04:19:26;99819.03;;;11.56;100.00
64521;BME280;50896;46.714;17.322;2023-03-25T04:21:53;99817.81;;;11.44;100.00
64521;BME280;50896;46.714;17.322;2023-03-25T04:24:20;99844.38;;;11.37;100.00
64521;BME280;50896;46.714;17.322;2023-03-25T04:26:47;99856.84;;;11.37;100.00
64521;BME280;50896;46.714;17.322;2023-03-25T04:29:15;99859.13;;;11.40;100.00
64521;BME280;50896;46.714;17.322;2023-03-25T04:31:42;99868.78;;;11.41;100.00
64521;BME280;50896;46.714;17.322;2023-03-25T04:34:12;99870.63;;;11.40;100.00
64521;BME280;50896;46.714;17.322;2023-03-25T04:36:41;99865.66;;;11.37;100.00
64521;BME280;50896;46.714;17.322;2023-03-25T04:39:11;99857.84;;;11.36;100.00
64521;BME280;50896;46.714;17.322;2023-03-25T04:41:38;99865.81;;;11.36;100.00
64521;BME280;50896;46.714;17.322;2023-03-25T04:44:05;99872.97;;;11.35;100.00
64521;BME280;50896;46.714;17.322;2023-03-25T04:46:34;99874.16;;;11.33;100.00
64521;BME280;50896;46.714;17.322;2023-03-25T04:49:05;99871.41;;;11.26;100.00
64521;BME280;50896;46.714;17.322;2023-03-25T04:51:40;99882.16;;;11.33;100.00
64521;BME280;50896;46.714;17.322;2023-03-25T04:54:15;99891.63;;;11.35;100.00
64521;BME280;50896;46.714;17.322;2023-03-25T04:56:43;99913.63;;;11.29;100.00
64521;BME280;50896;46.714;17.322;2023-03-25T04:59:13;99931.09;;;11.32;100.00
64521;BME280;50896;46.714;17.322;2023-03-25T05:01:41;99914.28;;;11.31;100.00
64521;BME280;50896;46.714;17.322;2023-03-25T05:04:13;99930.41;;;11.29;100.00
64521;BME280;50896;46.714;17.322;2023-03-25T05:06:48;99924.78;;;11.24;100.00
64521;BME280;50896;46.714;17.322;2023-03-25T05:09:19;99930.13;;;11.24;100.00
64521;BME280;50896;46.714;17.322;2023-03-25T05:11:49;99933.44;;;11.26;100.00
64521;BME280;50896;46.714;17.322;2023-03-25T05:14:18;99915.25;;;11.15;100.00
64521;BME280;50896;46.714;17.322;2023-03-25T05:16:46;99931.16;;;11.23;100.00
64521;BME280;50896;46.714;17.322;2023-03-25T05:19:14;99945.91;;;11.26;100.00
64521;BME280;50896;46.714;17.322;2023-03-25T05:21:41;99933.69;;;11.17;100.00
64521;BME280;50896;46.714;17.322;2023-03-25T05:24:10;99945.09;;;11.25;100.00
64521;BME280;50896;46.714;17.322;2023-03-25T05:26:38;99940.94;;;11.23;100.00
64521;BME280;50896;46.714;17.322;2023-03-25T05:29:08;99960.41;;;11.23;100.00
64521;BME280;50896;46.714;17.322;2023-03-25T05:31:35;99966.91;;;11.21;100.00
64521;BME280;50896;46.714;17.322;2023-03-25T05:34:02;99963.59;;;11.19;100.00
64521;BME280;50896;46.714;17.322;2023-03-25T05:36:32;99959.94;;;11.20;100.00
64521;BME280;50896;46.714;17.322;2023-03-25T05:38:59;99971.38;;;11.20;100.00
64521;BME280;50896;46.714;17.322;2023-03-25T05:41:27;99959.97;;;11.11;100.00
64521;BME280;50896;46.714;17.322;2023-03-25T05:44:06;99950.00;;;11.14;100.00
64521;BME280;50896;46.714;17.322;2023-03-25T05:46:33;99958.75;;;11.22;100.00
64521;BME280;50896;46.714;17.322;2023-03-25T05:49:00;99977.38;;;11.22;100.00
64521;BME280;50896;46.714;17.322;2023-03-25T05:51:29;99976.38;;;11.23;100.00
64521;BME280;50896;46.714;17.322;2023-03-25T05:53:59;99980.03;;;11.22;100.00
64521;BME280;50896;46.714;17.322;2023-03-25T05:56:27;99984.69;;;11.20;100.00
64521;BME280;50896;46.714;17.322;2023-03-25T05:58:55;99982.69;;;11.22;100.00
64521;BME280;50896;46.714;17.322;2023-03-25T06:01:23;99981.69;;;11.23;100.00
64521;BME280;50896;46.714;17.322;2023-03-25T06:04:00;99966.44;;;11.17;100.00
64521;BME280;50896;46.714;17.322;2023-03-25T06:06:30;99981.69;;;11.23;100.00
64521;BME280;50896;46.714;17.322;2023-03-25T06:09:00;99976.38;;;11.23;100.00
64521;BME280;50896;46.714;17.322;2023-03-25T06:11:28;99970.38;;;11.21;100.00
64521;BME280;50896;46.714;17.322;2023-03-25T06:13:55;99977.50;;;11.29;100.00
64521;BME280;50896;46.714;17.322;2023-03-25T06:16:24;99959.94;;;11.20;100.00
64521;BME280;50896;46.714;17.322;2023-03-25T06:18:56;99984.44;;;11.30;100.00
64521;BME280;50896;46.714;17.322;2023-03-25T06:21:32;99988.59;;;11.33;100.00
64521;BME280;50896;46.714;17.322;2023-03-25T06:23:59;99997.88;;;11.37;100.00
64521;BME280;50896;46.714;17.322;2023-03-25T06:26:27;100006.72;;;11.37;100.00
64521;BME280;50896;46.714;17.322;2023-03-25T06:28:54;99980.16;;;11.29;100.00
64521;BME280;50896;46.714;17.322;2023-03-25T06:31:23;99964.25;;;11.21;100.00
64521;BME280;50896;46.714;17.322;2023-03-25T06:33:55;99977.34;;;11.45;100.00
64521;BME280;50896;46.714;17.322;2023-03-25T06:36:22;99964.66;;;11.33;100.00
64521;BME280;50896;46.714;17.322;2023-03-25T06:38:52;99983.34;;;11.48;100.00
64521;BME280;50896;46.714;17.322;2023-03-25T06:41:20;99953.94;;;11.41;100.00
64521;BME280;50896;46.714;17.322;2023-03-25T06:44:01;99946.19;;;11.54;100.00
64521;BME280;50896;46.714;17.322;2023-03-25T06:46:46;99954.00;;;11.56;100.00
64521;BME280;50896;46.714;17.322;2023-03-25T06:49:15;99970.84;;;11.48;100.00
64521;BME280;50896;46.714;17.322;2023-03-25T06:51:43;99975.91;;;11.43;100.00
64521;BME280;50896;46.714;17.322;2023-03-25T06:54:10;99965.31;;;11.35;100.00
64521;BME280;50896;46.714;17.322;2023-03-25T06:56:37;99974.59;;;11.39;100.00
64521;BME280;50896;46.714;17.322;2023-03-25T06:59:04;99978.84;;;11.48;100.00
64521;BME280;50896;46.714;17.322;2023-03-25T07:01:31;100002.28;;;11.53;100.00
64521;BME280;50896;46.714;17.322;2023-03-25T07:03:58;100021.19;;;11.58;100.00
64521;BME280;50896;46.714;17.322;2023-03-25T07:06:25;100009.34;;;11.60;100.00
64521;BME280;50896;46.714;17.322;2023-03-25T07:08:52;100015.78;;;11.66;100.00
64521;BME280;50896;46.714;17.322;2023-03-25T07:11:24;99997.34;;;11.65;100.00
64521;BME280;50896;46.714;17.322;2023-03-25T07:13:52;99991.66;;;11.68;100.00
64521;BME280;50896;46.714;17.322;2023-03-25T07:16:23;99990.84;;;11.67;100.00
64521;BME280;50896;46.714;17.322;2023-03-25T07:18:50;99971.72;;;11.63;100.00
64521;BME280;50896;46.714;17.322;2023-03-25T07:21:17;99980.00;;;11.69;100.00
64521;BME280;50896;46.714;17.322;2023-03-25T07:23:44;99952.69;;;11.52;100.00
64521;BME280;50896;46.714;17.322;2023-03-25T07:26:11;99960.00;;;11.50;100.00
64521;BME280;50896;46.714;17.322;2023-03-25T07:28:41;99991.00;;;11.66;100.00
64521;BME280;50896;46.714;17.322;2023-03-25T07:31:13;99974.38;;;11.63;100.00
64521;BME280;50896;46.714;17.322;2023-03-25T07:33:40;99981.78;;;11.76;100.00
64521;BME280;50896;46.714;17.322;2023-03-25T07:36:10;99969.28;;;11.77;100.00
64521;BME280;50896;46.714;17.322;2023-03-25T07:38:37;99963.22;;;11.83;100.00
64521;BME280;50896;46.714;17.322;2023-03-25T07:41:09;99960.22;;;11.86;100.00
64521;BME280;50896;46.714;17.322;2023-03-25T07:43:39;99956.56;;;12.02;100.00
64521;BME280;50896;46.714;17.322;2023-03-25T07:46:19;99956.84;;;12.07;100.00
64521;BME280;50896;46.714;17.322;2023-03-25T07:48:47;99955.66;;;12.10;100.00
64521;BME280;50896;46.714;17.322;2023-03-25T07:51:14;99951.88;;;12.19;100.00
64521;BME280;50896;46.714;17.322;2023-03-25T07:53:41;99966.50;;;12.23;100.00
64521;BME280;50896;46.714;17.322;2023-03-25T07:56:11;99964.75;;;12.30;100.00
64521;BME280;50896;46.714;17.322;2023-03-25T07:58:37;99972.38;;;12.34;100.00
64521;BME280;50896;46.714;17.322;2023-03-25T08:01:07;99971.09;;;12.14;100.00
64521;BME280;50896;46.714;17.322;2023-03-25T08:03:33;99993.34;;;12.37;100.00
64521;BME280;50896;46.714;17.322;2023-03-25T08:06:01;100001.16;;;12.38;100.00
64521;BME280;50896;46.714;17.322;2023-03-25T08:08:28;100001.25;;;12.45;100.00
64521;BME280;50896;46.714;17.322;2023-03-25T08:10:56;100000.78;;;12.41;100.00
64521;BME280;50896;46.714;17.322;2023-03-25T08:13:23;100005.91;;;12.43;100.00
64521;BME280;50896;46.714;17.322;2023-03-25T08:15:50;100007.97;;;12.41;100.00
64521;BME280;50896;46.714;17.322;2023-03-25T08:18:18;100007.66;;;12.36;100.00
64521;BME280;50896;46.714;17.322;2023-03-25T08:20:47;100009.97;;;12.39;100.00
64521;BME280;50896;46.714;17.322;2023-03-25T08:23:14;100005.66;;;12.38;100.00
64521;BME280;50896;46.714;17.322;2023-03-25T08:25:49;100011.25;;;12.43;100.00
64521;BME280;50896;46.714;17.322;2023-03-25T08:28:19;100001.06;;;12.46;100.00
64521;BME280;50896;46.714;17.322;2023-03-25T08:30:50;99992.50;;;12.51;100.00
64521;BME280;50896;46.714;17.322;2023-03-25T08:33:22;99999.78;;;12.57;100.00
64521;BME280;50896;46.714;17.322;2023-03-25T08:35:56;100000.13;;;12.54;100.00
64521;BME280;50896;46.714;17.322;2023-03-25T08:38:23;99995.06;;;12.59;100.00
64521;BME280;50896;46.714;17.322;2023-03-25T08:40:50;99992.41;;;12.59;100.00
64521;BME280;50896;46.714;17.322;2023-03-25T08:43:18;99990.81;;;12.65;100.00
64521;BME280;50896;46.714;17.322;2023-03-25T08:45:45;99992.50;;;12.66;100.00
64521;BME280;50896;46.714;17.322;2023-03-25T08:48:11;100006.09;;;12.71;100.00
64521;BME280;50896;46.714;17.322;2023-03-25T08:50:38;100005.25;;;12.71;100.00
64521;BME280;50896;46.714;17.322;2023-03-25T08:53:06;99992.94;;;12.70;100.00
64521;BME280;50896;46.714;17.322;2023-03-25T08:55:32;100006.16;;;12.78;100.00
64521;BME280;50896;46.714;17.322;2023-03-25T08:58:01;100006.25;;;12.85;100.00
64521;BME280;50896;46.714;17.322;2023-03-25T09:00:28;100003.78;;;12.83;100.00
64521;BME280;50896;46.714;17.322;2023-03-25T09:02:56;100013.06;;;12.87;100.00
64521;BME280;50896;46.714;17.322;2023-03-25T09:05:25;100010.38;;;12.87;100.00
64521;BME280;50896;46.714;17.322;2023-03-25T09:07:52;100015.72;;;12.87;100.00
64521;BME280;50896;46.714;17.322;2023-03-25T09:10:19;100017.56;;;12.87;100.00
64521;BME280;50896;46.714;17.322;2023-03-25T09:12:46;100030.06;;;12.86;100.00
64521;BME280;50896;46.714;17.322;2023-03-25T09:15:13;100023.19;;;12.77;100.00
64521;BME280;50896;46.714;17.322;2023-03-25T09:17:39;100030.34;;;12.76;100.00
64521;BME280;50896;46.714;17.322;2023-03-25T09:20:08;100036.16;;;12.80;100.00
64521;BME280;50896;46.714;17.322;2023-03-25T09:22:37;100031.44;;;12.82;100.00
64521;BME280;50896;46.714;17.322;2023-03-25T09:25:05;100031.63;;;12.80;100.00
64521;BME280;50896;46.714;17.322;2023-03-25T09:27:33;100024.00;;;12.92;100.00
64521;BME280;50896;46.714;17.322;2023-03-25T09:30:00;100026.91;;;12.97;100.00
64521;BME280;50896;46.714;17.322;2023-03-25T09:32:27;100029.84;;;13.03;100.00
64521;BME280;50896;46.714;17.322;2023-03-25T09:34:54;100031.94;;;13.07;100.00
64521;BME280;50896;46.714;17.322;2023-03-25T09:37:21;100032.69;;;13.16;100.00
64521;BME280;50896;46.714;17.322;2023-03-25T09:39:48;100043.97;;;13.18;100.00
64521;BME280;50896;46.714;17.322;2023-03-25T09:42:36;100057.09;;;12.98;100.00
64521;BME280;50896;46.714;17.322;2023-03-25T09:45:24;100053.78;;;12.96;100.00
64521;BME280;50896;46.714;17.322;2023-03-25T09:50:48;100047.34;;;12.90;100.00
64521;BME280;50896;46.714;17.322;2023-03-25T09:56:06;100030.91;;;12.87;100.00
64521;BME280;50896;46.714;17.322;2023-03-25T09:58:51;100033.78;;;12.85;100.00
64521;BME280;50896;46.714;17.322;2023-03-25T10:01:40;100040.72;;;12.86;100.00
64521;BME280;50896;46.714;17.322;2023-03-25T10:12:43;100055.13;;;12.70;100.00
64521;BME280;50896;46.714;17.322;2023-03-25T10:15:23;100027.44;;;12.56;100.00
64521;BME280;50896;46.714;17.322;2023-03-25T10:18:01;100039.47;;;12.52;100.00
64521;BME280;50896;46.714;17.322;2023-03-25T10:24:16;100066.41;;;12.42;100.00
64521;BME280;50896;46.714;17.322;2023-03-25T10:26:54;100049.41;;;12.28;100.00
64521;BME280;50896;46.714;17.322;2023-03-25T10:32:38;100023.00;;;12.19;100.00
64521;BME280;50896;46.714;17.322;2023-03-25T10:35:13;100017.69;;;12.19;100.00
64521;BME280;50896;46.714;17.322;2023-03-25T10:37:41;100012.16;;;12.20;100.00
64521;BME280;50896;46.714;17.322;2023-03-25T10:43:04;100005.47;;;12.24;100.00
64521;BME280;50896;46.714;17.322;2023-03-25T10:45:37;99991.47;;;12.22;100.00
64521;BME280;50896;46.714;17.322;2023-03-25T10:48:21;99967.69;;;12.21;100.00
64521;BME280;50896;46.714;17.322;2023-03-25T10:50:51;99966.41;;;12.31;100.00
64521;BME280;50896;46.714;17.322;2023-03-25T10:53:24;99965.50;;;12.39;100.00
64521;BME280;50896;46.714;17.322;2023-03-25T10:56:11;99987.16;;;12.51;100.00
64521;BME280;50896;46.714;17.322;2023-03-25T10:58:40;99967.22;;;12.47;100.00
64521;BME280;50896;46.714;17.322;2023-03-25T11:01:16;99966.69;;;12.52;100.00
64521;BME280;50896;46.714;17.322;2023-03-25T11:03:49;99959.59;;;12.59;100.00
64521;BME280;50896;46.714;17.322;2023-03-25T11:06:26;99965.25;;;12.71;100.00
64521;BME280;50896;46.714;17.322;2023-03-25T11:09:09;99963.47;;;12.78;100.00
64521;BME280;50896;46.714;17.322;2023-03-25T11:11:38;99957.53;;;12.76;100.00
64521;BME280;50896;46.714;17.322;2023-03-25T11:14:05;99957.03;;;12.87;100.00
64521;BME280;50896;46.714;17.322;2023-03-25T11:16:35;99952.88;;;12.85;100.00
64521;BME280;50896;46.714;17.322;2023-03-25T11:19:02;99965.88;;;13.09;100.00
64521;BME280;50896;46.714;17.322;2023-03-25T11:21:32;99965.31;;;13.14;100.00
64521;BME280;50896;46.714;17.322;2023-03-25T11:24:00;99965.88;;;13.09;100.00
64521;BME280;50896;46.714;17.322;2023-03-25T11:26:34;99979.94;;;13.18;100.00
64521;BME280;50896;46.714;17.322;2023-03-25T11:29:16;99967.94;;;13.29;100.00
64521;BME280;50896;46.714;17.322;2023-03-25T11:31:54;99976.84;;;13.36;100.00
64521;BME280;50896;46.714;17.322;2023-03-25T11:34:34;99991.94;;;13.44;100.00
64521;BME280;50896;46.714;17.322;2023-03-25T11:37:17;99981.38;;;13.36;100.00
64521;BME280;50896;46.714;17.322;2023-03-25T11:39:52;99980.06;;;13.53;100.00
64521;BME280;50896;46.714;17.322;2023-03-25T11:42:35;99996.34;;;13.58;100.00
64521;BME280;50896;46.714;17.322;2023-03-25T11:45:05;99981.47;;;13.49;100.00
64521;BME280;50896;46.714;17.322;2023-03-25T11:47:35;100002.91;;;13.56;100.00
64521;BME280;50896;46.714;17.322;2023-03-25T11:50:04;99991.47;;;13.62;100.00
64521;BME280;50896;46.714;17.322;2023-03-25T11:52:43;99996.09;;;13.53;100.00
64521;BME280;50896;46.714;17.322;2023-03-25T11:55:27;99986.50;;;13.59;100.00
64521;BME280;50896;46.714;17.322;2023-03-25T11:57:58;99990.13;;;13.51;100.00
64521;BME280;50896;46.714;17.322;2023-03-25T12:03:01;99979.19;;;13.46;100.00
64521;BME280;50896;46.714;17.322;2023-03-25T12:05:29;99977.31;;;13.40;100.00
64521;BME280;50896;46.714;17.322;2023-03-25T12:08:26;99984.47;;;13.39;100.00
64521;BME280;50896;46.714;17.322;2023-03-25T12:10:59;99975.19;;;13.35;100.00
64521;BME280;50896;46.714;17.322;2023-03-25T12:14:29;99961.56;;;13.30;100.00
64521;BME280;50896;46.714;17.322;2023-03-25T12:16:57;99961.50;;;13.23;100.00
64521;BME280;50896;46.714;17.322;2023-03-25T12:19:53;99958.00;;;13.23;100.00
64521;BME280;50896;46.714;17.322;2023-03-25T12:25:31;99939.00;;;13.11;100.00
64521;BME280;50896;46.714;17.322;2023-03-25T12:28:27;99945.47;;;13.02;100.00
64521;BME280;50896;46.714;17.322;2023-03-25T12:31:09;99947.94;;;13.03;100.00
64521;BME280;50896;46.714;17.322;2023-03-25T12:39:17;99912.44;;;13.03;100.00
64521;BME280;50896;46.714;17.322;2023-03-25T12:50:42;99908.25;;;12.93;100.00
64521;BME280;50896;46.714;17.322;2023-03-25T12:59:06;99888.06;;;12.84;100.00
64521;BME280;50896;46.714;17.322;2023-03-25T13:06:57;99910.53;;;12.75;100.00
64521;BME280;50896;46.714;17.322;2023-03-25T13:09:36;99924.84;;;12.74;100.00
64521;BME280;50896;46.714;17.322;2023-03-25T13:12:16;99929.19;;;12.75;100.00
64521;BME280;50896;46.714;17.322;2023-03-25T13:15:06;99935.34;;;12.75;100.00
64521;BME280;50896;46.714;17.322;2023-03-25T13:20:37;99928.88;;;12.63;100.00
64521;BME280;50896;46.714;17.322;2023-03-25T13:23:07;99930.97;;;12.68;100.00
64521;BME280;50896;46.714;17.322;2023-03-25T13:28:28;99894.13;;;12.78;100.00
64521;BME280;50896;46.714;17.322;2023-03-25T13:31:05;99896.28;;;12.89;100.00
64521;BME280;50896;46.714;17.322;2023-03-25T13:33:47;99900.38;;;12.85;100.00
64521;BME280;50896;46.714;17.322;2023-03-25T13:36:25;99895.06;;;12.85;100.00
64521;BME280;50896;46.714;17.322;2023-03-25T13:39:11;99893.75;;;13.03;100.00
64521;BME280;50896;46.714;17.322;2023-03-25T13:42:09;99887.34;;;13.19;100.00
64521;BME280;50896;46.714;17.322;2023-03-25T13:44:35;99866.00;;;13.19;100.00
64521;BME280;50896;46.714;17.322;2023-03-25T13:47:29;99870.06;;;13.36;100.00
64521;BME280;50896;46.714;17.322;2023-03-25T13:50:23;99885.75;;;13.46;100.00
64521;BME280;50896;46.714;17.322;2023-03-25T13:52:57;99894.22;;;13.56;100.00
64521;BME280;50896;46.714;17.322;2023-03-25T14:04:16;99907.22;;;13.59;100.00
64521;BME280;50896;46.714;17.322;2023-03-25T14:07:07;99907.50;;;13.43;100.00
64521;BME280;50896;46.714;17.322;2023-03-25T14:15:20;99916.56;;;13.27;100.00
64521;BME280;50896;46.714;17.322;2023-03-25T14:17:48;99923.69;;;13.20;100.00
64521;BME280;50896;46.714;17.322;2023-03-25T14:20:22;99918.84;;;13.08;100.00
64521;BME280;50896;46.714;17.322;2023-03-25T14:22:57;99920.38;;;12.96;100.00
64521;BME280;50896;46.714;17.322;2023-03-25T14:25:33;99909.63;;;12.89;100.00
64521;BME280;50896;46.714;17.322;2023-03-25T14:28:03;99929.03;;;12.98;100.00
64521;BME280;50896;46.714;17.322;2023-03-25T14:30:31;99925.84;;;12.88;100.00
64521;BME280;50896;46.714;17.322;2023-03-25T14:32:59;99914.72;;;12.84;100.00
64521;BME280;50896;46.714;17.322;2023-03-25T14:43:33;99914.66;;;12.77;100.00
64521;BME280;50896;46.714;17.322;2023-03-25T14:56:50;99923.13;;;12.81;100.00
64521;BME280;50896;46.714;17.322;2023-03-25T14:59:22;99924.31;;;12.78;100.00
64521;BME280;50896;46.714;17.322;2023-03-25T15:01:51;99922.28;;;12.80;100.00
64521;BME280;50896;46.714;17.322;2023-03-25T15:04:31;99924.41;;;12.85;100.00
64521;BME280;50896;46.714;17.322;2023-03-25T15:07:00;99911.72;;;12.72;100.00
64521;BME280;50896;46.714;17.322;2023-03-25T15:09:28;99925.94;;;12.79;100.00
64521;BME280;50896;46.714;17.322;2023-03-25T15:12:01;99933.78;;;12.81;100.00
64521;BME280;50896;46.714;17.322;2023-03-25T15:14:40;99912.25;;;12.82;100.00
64521;BME280;50896;46.714;17.322;2023-03-25T15:17:12;99895.41;;;12.82;100.00
64521;BME280;50896;46.714;17.322;2023-03-25T15:22:28;99907.34;;;12.64;100.00
64521;BME280;50896;46.714;17.322;2023-03-25T15:24:59;99894.38;;;12.61;100.00